createdAt,value
2018-09-06T00:00:53.616Z,13.10
2018-09-06T00:01:53.608Z,12.70
2018-09-06T00:02:53.593Z,12.90
2018-09-06T00:03:53.582Z,13.40
2018-09-06T00:04:53.637Z,12.90
2018-09-06T00:05:53.576Z,13.20
2018-09-06T00:06:53.550Z,12.30
2018-09-06T00:07:53.560Z,12.80
2018-09-06T00:08:53.536Z,12.60
2018-09-06T00:09:53.516Z,12.20
2018-09-06T00:10:53.523Z,13.00
2018-09-06T00:11:53.499Z,12.20
2018-09-06T00:12:53.484Z,13.20
2018-09-06T00:13:53.482Z,12.50
2018-09-06T00:14:53.461Z,12.70
2018-09-06T00:15:53.466Z,12.70
2018-09-06T00:16:53.441Z,14.00
2018-09-06T00:17:53.430Z,13.50
2018-09-06T00:18:53.423Z,13.00
2018-09-06T00:19:53.406Z,12.40
2018-09-06T00:20:53.413Z,13.10
2018-09-06T00:21:53.384Z,13.20
2018-09-06T00:22:53.379Z,13.00
2018-09-06T00:23:53.371Z,12.90
2018-09-06T00:24:53.353Z,13.70
2018-09-06T00:25:53.386Z,13.00
2018-09-06T00:26:53.330Z,12.60
2018-09-06T00:27:53.318Z,12.60
2018-09-06T00:28:53.308Z,12.70
2018-09-06T00:29:53.318Z,11.70
2018-09-06T00:30:53.313Z,12.50
2018-09-06T00:31:53.275Z,13.10
2018-09-06T00:32:53.262Z,12.70
2018-09-06T00:33:53.254Z,12.50
2018-09-06T00:34:53.243Z,12.50
2018-09-06T00:35:53.256Z,12.80
2018-09-06T00:36:53.220Z,13.20
2018-09-06T00:37:53.209Z,12.50
2018-09-06T00:38:53.197Z,13.00
2018-09-06T00:39:53.187Z,13.30
2018-09-06T00:40:53.196Z,12.80
2018-09-06T00:41:53.167Z,13.20
2018-09-06T00:42:53.154Z,13.00
2018-09-06T00:43:53.151Z,12.30
2018-09-06T00:44:53.132Z,12.50
2018-09-06T00:45:53.137Z,12.80
2018-09-06T00:46:53.119Z,13.10
2018-09-06T00:47:53.097Z,12.60
2018-09-06T00:48:53.087Z,12.00
2018-09-06T00:49:53.074Z,12.10
2018-09-06T00:50:53.082Z,12.40
2018-09-06T00:51:53.062Z,12.50
2018-09-06T00:52:53.043Z,11.30
2018-09-06T00:53:53.031Z,12.60
2018-09-06T00:54:53.021Z,11.40
2018-09-06T00:55:53.032Z,12.80
2018-09-06T00:56:52.997Z,12.80
2018-09-06T00:57:53.010Z,12.70
2018-09-06T00:58:52.977Z,12.50
2018-09-06T00:59:52.966Z,12.90
2018-09-06T01:00:52.969Z,12.80
2018-09-06T01:01:52.949Z,12.40
2018-09-06T01:02:52.931Z,12.60
2018-09-06T01:03:52.920Z,12.70
2018-09-06T01:04:52.910Z,12.50
2018-09-06T01:05:52.916Z,12.00
2018-09-06T01:06:52.887Z,13.00
2018-09-06T01:07:52.880Z,12.50
2018-09-06T01:08:52.871Z,11.90
2018-09-06T01:09:52.855Z,11.40
2018-09-06T01:10:52.889Z,11.40
2018-09-06T01:11:52.834Z,11.10
2018-09-06T01:12:52.823Z,11.60
2018-09-06T01:13:52.812Z,12.10
2018-09-06T01:14:52.801Z,11.40
2018-09-06T01:15:52.790Z,12.10
2018-09-06T01:16:52.793Z,12.30
2018-09-06T01:17:52.767Z,12.00
2018-09-06T01:18:52.757Z,12.00
2018-09-06T01:19:52.751Z,12.30
2018-09-06T01:20:52.736Z,12.10
2018-09-06T01:21:52.742Z,12.40
2018-09-06T01:22:52.714Z,11.50
2018-09-06T01:23:52.701Z,11.40
2018-09-06T01:24:52.692Z,11.70
2018-09-06T01:25:52.685Z,12.30
2018-09-06T01:26:52.683Z,12.20
2018-09-06T01:27:52.656Z,11.60
2018-09-06T01:28:52.648Z,12.30
2018-09-06T01:29:52.633Z,11.70
2018-09-06T01:30:52.624Z,12.30
2018-09-06T01:31:52.633Z,12.60
2018-09-06T01:32:52.601Z,12.50
2018-09-06T01:33:52.590Z,11.80
2018-09-06T01:34:52.579Z,12.30
2018-09-06T01:35:52.574Z,12.10
2018-09-06T01:36:52.576Z,11.90
2018-09-06T01:37:52.548Z,11.90
2018-09-06T01:38:52.537Z,11.20
2018-09-06T01:39:52.528Z,11.80
2018-09-06T01:40:52.521Z,12.20
2018-09-06T01:41:52.528Z,12.30
2018-09-06T01:42:52.491Z,11.30
2018-09-06T01:43:52.481Z,11.70
2018-09-06T01:44:52.470Z,11.40
2018-09-06T01:45:52.458Z,11.30
2018-09-06T01:46:52.463Z,11.60
2018-09-06T01:47:52.443Z,11.70
2018-09-06T01:48:52.427Z,12.20
2018-09-06T01:49:52.413Z,11.80
2018-09-06T01:50:52.403Z,12.00
2018-09-06T01:51:52.408Z,11.70
2018-09-06T01:52:52.392Z,11.60
2018-09-06T01:53:52.370Z,11.80
2018-09-06T01:54:52.362Z,12.00
2018-09-06T01:55:52.347Z,11.50
2018-09-06T01:56:52.353Z,11.80
2018-09-06T01:57:52.325Z,12.00
2018-09-06T01:58:52.318Z,12.00
2018-09-06T01:59:52.305Z,11.70
2018-09-06T02:00:52.291Z,12.30
2018-09-06T02:01:52.299Z,11.10
2018-09-06T02:02:52.271Z,12.00
2018-09-06T02:03:52.263Z,12.10
2018-09-06T02:04:52.249Z,11.70
2018-09-06T02:05:52.240Z,12.60
2018-09-06T02:06:52.242Z,12.00
2018-09-06T02:07:52.217Z,11.80
2018-09-06T02:08:52.205Z,11.90
2018-09-06T02:09:52.202Z,11.60
2018-09-06T02:10:52.182Z,11.50
2018-09-06T02:11:52.187Z,12.00
2018-09-06T02:12:52.160Z,11.40
2018-09-06T02:13:52.152Z,10.90
2018-09-06T02:14:52.151Z,10.80
2018-09-06T02:15:52.148Z,12.10
2018-09-06T02:16:52.132Z,11.20
2018-09-06T02:17:52.106Z,11.70
2018-09-06T02:18:52.096Z,11.90
2018-09-06T02:19:52.083Z,11.60
2018-09-06T02:20:52.089Z,11.20
2018-09-06T02:21:52.092Z,11.80
2018-09-06T02:22:52.050Z,11.90
2018-09-06T02:23:52.040Z,11.50
2018-09-06T02:24:52.028Z,11.00
2018-09-06T02:25:52.017Z,11.90
2018-09-06T02:26:52.028Z,11.20
2018-09-06T02:27:51.995Z,11.40
2018-09-06T02:28:51.983Z,11.50
2018-09-06T02:29:51.975Z,10.80
2018-09-06T02:30:51.978Z,10.70
2018-09-06T02:31:51.984Z,10.80
2018-09-06T02:32:51.940Z,11.30
2018-09-06T02:33:51.928Z,11.60
2018-09-06T02:34:51.917Z,11.20
2018-09-06T02:35:51.905Z,10.80
2018-09-06T02:36:51.894Z,11.00
2018-09-06T02:37:51.902Z,10.80
2018-09-06T02:38:51.872Z,11.00
2018-09-06T02:39:51.860Z,10.90
2018-09-06T02:40:51.849Z,10.80
2018-09-06T02:41:51.850Z,11.00
2018-09-06T02:42:51.844Z,10.20
2018-09-06T02:43:51.817Z,11.30
2018-09-06T02:44:51.805Z,11.00
2018-09-06T02:45:51.796Z,11.20
2018-09-06T02:46:51.783Z,11.10
2018-09-06T02:47:51.788Z,11.20
2018-09-06T02:48:51.768Z,11.00
2018-09-06T02:49:51.750Z,11.40
2018-09-06T02:50:51.740Z,11.20
2018-09-06T02:51:51.727Z,11.70
2018-09-06T02:52:51.735Z,10.70
2018-09-06T02:53:51.797Z,10.50
2018-09-06T02:54:51.697Z,10.40
2018-09-06T02:55:51.688Z,10.50
2018-09-06T02:56:51.671Z,11.30
2018-09-06T02:57:51.685Z,10.90
2018-09-06T02:58:51.651Z,10.60
2018-09-06T02:59:51.641Z,10.40
2018-09-06T03:00:51.628Z,11.00
2018-09-06T03:01:51.615Z,10.10
2018-09-06T03:02:51.620Z,10.80
2018-09-06T03:03:51.599Z,11.20
2018-09-06T03:04:51.586Z,10.40
2018-09-06T03:05:51.570Z,10.60
2018-09-06T03:06:51.560Z,10.50
2018-09-06T03:07:51.569Z,10.40
2018-09-06T03:08:51.538Z,10.60
2018-09-06T03:09:51.525Z,10.60
2018-09-06T03:10:51.515Z,10.70
2018-09-06T03:11:51.505Z,10.20
2018-09-06T03:12:51.508Z,11.10
2018-09-06T03:13:51.485Z,10.20
2018-09-06T03:14:51.473Z,9.80
2018-09-06T03:15:51.463Z,10.70
2018-09-06T03:16:51.449Z,10.60
2018-09-06T03:17:51.454Z,10.60
2018-09-06T03:18:51.428Z,10.60
2018-09-06T03:19:51.414Z,10.20
2018-09-06T03:20:51.404Z,10.70
2018-09-06T03:21:51.396Z,10.00
2018-09-06T03:22:51.414Z,10.00
2018-09-06T03:23:51.372Z,10.40
2018-09-06T03:24:51.360Z,10.60
2018-09-06T03:25:51.350Z,10.50
2018-09-06T03:26:51.342Z,11.00
2018-09-06T03:27:51.348Z,10.50
2018-09-06T03:28:51.328Z,10.90
2018-09-06T03:29:51.305Z,10.20
2018-09-06T03:30:51.296Z,10.50
2018-09-06T03:31:51.282Z,10.30
2018-09-06T03:32:51.289Z,9.80
2018-09-06T03:33:51.259Z,10.40
2018-09-06T03:34:51.249Z,10.20
2018-09-06T03:35:51.267Z,10.00
2018-09-06T03:36:51.227Z,9.80
2018-09-06T03:37:51.239Z,9.60
2018-09-06T03:38:51.203Z,9.00
2018-09-06T03:39:51.198Z,9.40
2018-09-06T03:40:51.182Z,9.20
2018-09-06T03:41:51.170Z,9.80
2018-09-06T03:42:51.185Z,9.30
2018-09-06T03:43:51.153Z,9.50
2018-09-06T03:44:51.137Z,9.80
2018-09-06T03:45:51.126Z,10.20
2018-09-06T03:46:51.115Z,9.50
2018-09-06T03:47:51.133Z,10.20
2018-09-06T03:48:51.094Z,9.60
2018-09-06T03:49:51.081Z,10.00
2018-09-06T03:50:51.070Z,10.40
2018-09-06T03:51:51.062Z,9.80
2018-09-06T03:52:51.047Z,9.70
2018-09-06T03:53:51.054Z,9.80
2018-09-06T03:54:51.030Z,10.20
2018-09-06T03:55:51.017Z,9.80
2018-09-06T03:56:51.002Z,9.20
2018-09-06T03:57:50.991Z,9.00
2018-09-06T03:58:50.997Z,9.40
2018-09-06T03:59:50.972Z,9.20
2018-09-06T04:00:50.958Z,9.40
2018-09-06T04:01:50.948Z,9.80
2018-09-06T04:02:50.938Z,9.80
2018-09-06T04:03:50.944Z,9.40
2018-09-06T04:04:50.913Z,9.40
2018-09-06T04:05:50.904Z,9.00
2018-09-06T04:06:50.891Z,9.40
2018-09-06T04:07:50.880Z,9.30
2018-09-06T04:08:50.885Z,9.60
2018-09-06T04:09:50.863Z,8.80
2018-09-06T04:10:50.847Z,9.00
2018-09-06T04:11:50.846Z,9.50
2018-09-06T04:12:50.830Z,9.30
2018-09-06T04:13:50.828Z,9.00
2018-09-06T04:14:50.804Z,8.90
2018-09-06T04:15:50.881Z,9.00
2018-09-06T04:16:50.783Z,9.10
2018-09-06T04:17:50.770Z,8.90
2018-09-06T04:18:50.774Z,9.10
2018-09-06T04:19:50.747Z,9.10
2018-09-06T04:20:50.737Z,9.40
2018-09-06T04:21:50.727Z,9.10
2018-09-06T04:22:50.719Z,8.80
2018-09-06T04:23:50.719Z,8.80
2018-09-06T04:24:50.692Z,9.00
2018-09-06T04:25:50.682Z,9.30
2018-09-06T04:26:50.671Z,9.60
2018-09-06T04:27:50.663Z,8.80
2018-09-06T04:28:50.665Z,9.20
2018-09-06T04:29:50.640Z,9.40
2018-09-06T04:30:50.627Z,9.50
2018-09-06T04:31:50.616Z,9.00
2018-09-06T04:32:50.605Z,9.00
2018-09-06T04:33:50.671Z,9.00
2018-09-06T04:34:50.584Z,9.20
2018-09-06T04:35:50.672Z,9.20
2018-09-06T04:36:50.563Z,9.20
2018-09-06T04:37:50.563Z,9.00
2018-09-06T04:38:50.589Z,8.90
2018-09-06T04:39:50.541Z,8.90
2018-09-06T04:40:50.516Z,9.50
2018-09-06T04:41:50.506Z,9.20
2018-09-06T04:42:50.511Z,8.80
2018-09-06T04:43:50.573Z,8.50
2018-09-06T04:44:50.481Z,8.70
2018-09-06T04:45:50.461Z,8.60
2018-09-06T04:46:50.451Z,8.70
2018-09-06T04:47:50.459Z,8.30
2018-09-06T04:48:50.446Z,7.90
2018-09-06T04:49:50.420Z,8.50
2018-09-06T04:50:50.412Z,8.70
2018-09-06T04:51:50.396Z,8.50
2018-09-06T04:52:50.393Z,8.60
2018-09-06T04:53:50.393Z,7.80
2018-09-06T04:54:50.398Z,8.40
2018-09-06T04:55:50.358Z,7.70
2018-09-06T04:56:50.367Z,7.90
2018-09-06T04:57:50.328Z,8.20
2018-09-06T04:58:50.336Z,8.60
2018-09-06T04:59:50.309Z,8.20
2018-09-06T05:00:50.309Z,8.20
2018-09-06T05:01:50.292Z,8.30
2018-09-06T05:02:50.274Z,8.10
2018-09-06T05:03:50.331Z,8.20
2018-09-06T05:04:50.254Z,8.40
2018-09-06T05:05:50.244Z,8.30
2018-09-06T05:06:50.248Z,8.30
2018-09-06T05:07:50.217Z,8.50
2018-09-06T05:08:50.206Z,8.30
2018-09-06T05:09:50.215Z,7.80
2018-09-06T05:10:50.185Z,8.60
2018-09-06T05:11:50.180Z,8.50
2018-09-06T05:12:50.196Z,8.10
2018-09-06T05:13:50.151Z,8.00
2018-09-06T05:14:50.155Z,8.00
2018-09-06T05:15:50.127Z,8.20
2018-09-06T05:16:50.118Z,8.00
2018-09-06T05:17:50.123Z,8.20
2018-09-06T05:18:50.095Z,8.30
2018-09-06T05:19:50.099Z,8.20
2018-09-06T05:20:50.076Z,7.50
2018-09-06T05:21:50.120Z,8.10
2018-09-06T05:22:50.054Z,8.40
2018-09-06T05:23:50.081Z,8.00
2018-09-06T05:24:50.059Z,7.80
2018-09-06T05:25:50.020Z,8.40
2018-09-06T05:26:50.008Z,7.80
2018-09-06T05:27:50.006Z,8.00
2018-09-06T05:28:49.986Z,8.00
2018-09-06T05:29:49.992Z,7.80
2018-09-06T05:30:50.015Z,7.70
2018-09-06T05:31:49.949Z,7.90
2018-09-06T05:32:49.940Z,7.40
2018-09-06T05:33:49.928Z,7.50
2018-09-06T05:34:49.938Z,7.90
2018-09-06T05:35:49.912Z,8.00
2018-09-06T05:36:49.909Z,7.60
2018-09-06T05:37:49.886Z,7.70
2018-09-06T05:38:49.879Z,7.70
2018-09-06T05:39:49.879Z,7.70
2018-09-06T05:40:49.851Z,7.80
2018-09-06T05:41:49.839Z,7.80
2018-09-06T05:42:49.830Z,7.50
2018-09-06T05:43:49.824Z,8.00
2018-09-06T05:44:49.864Z,7.50
2018-09-06T05:45:49.804Z,8.00
2018-09-06T05:46:49.792Z,7.80
2018-09-06T05:47:49.770Z,7.60
2018-09-06T05:48:49.763Z,7.30
2018-09-06T05:49:49.772Z,7.80
2018-09-06T05:50:49.739Z,7.80
2018-09-06T05:51:49.751Z,7.80
2018-09-06T05:52:49.715Z,7.90
2018-09-06T05:53:49.704Z,7.70
2018-09-06T05:54:49.708Z,8.10
2018-09-06T05:55:49.680Z,7.90
2018-09-06T05:56:49.680Z,8.10
2018-09-06T05:57:49.687Z,7.80
2018-09-06T05:58:49.646Z,8.10
2018-09-06T05:59:49.657Z,7.50
2018-09-06T06:00:49.636Z,8.00
2018-09-06T06:01:49.615Z,7.40
2018-09-06T06:02:49.602Z,7.50
2018-09-06T06:03:49.594Z,7.40
2018-09-06T06:04:49.596Z,8.00
2018-09-06T06:05:49.603Z,7.50
2018-09-06T06:06:49.558Z,7.30
2018-09-06T06:07:49.555Z,7.90
2018-09-06T06:08:49.536Z,7.90
2018-09-06T06:09:49.550Z,8.00
2018-09-06T06:10:49.530Z,7.90
2018-09-06T06:11:49.564Z,7.60
2018-09-06T06:12:49.494Z,7.20
2018-09-06T06:13:49.497Z,7.20
2018-09-06T06:14:49.482Z,7.50
2018-09-06T06:15:49.512Z,7.30
2018-09-06T06:16:49.444Z,7.30
2018-09-06T06:17:49.432Z,7.50
2018-09-06T06:18:49.434Z,7.40
2018-09-06T06:19:49.495Z,7.50
2018-09-06T06:20:49.427Z,7.20
2018-09-06T06:21:49.396Z,7.90
2018-09-06T06:22:49.377Z,6.90
2018-09-06T06:23:49.372Z,7.40
2018-09-06T06:24:49.855Z,7.60
2018-09-06T06:25:49.385Z,7.10
2018-09-06T06:26:49.331Z,7.20
2018-09-06T06:27:49.319Z,7.70
2018-09-06T06:28:49.309Z,7.60
2018-09-06T06:29:49.320Z,7.30
2018-09-06T06:30:49.326Z,7.80
2018-09-06T06:31:49.320Z,7.70
2018-09-06T06:32:49.268Z,7.40
2018-09-06T06:33:49.255Z,7.00
2018-09-06T06:34:49.278Z,7.60
2018-09-06T06:35:49.233Z,7.60
2018-09-06T06:36:49.217Z,7.40
2018-09-06T06:37:49.244Z,6.90
2018-09-06T06:38:49.198Z,7.40
2018-09-06T06:39:49.225Z,7.10
2018-09-06T06:40:49.205Z,7.20
2018-09-06T06:41:49.161Z,7.00
2018-09-06T06:42:49.153Z,7.40
2018-09-06T06:43:49.145Z,7.10
2018-09-06T06:44:49.140Z,7.40
2018-09-06T06:45:49.165Z,7.20
2018-09-06T06:46:49.107Z,7.30
2018-09-06T06:47:49.104Z,7.20
2018-09-06T06:48:49.083Z,7.70
2018-09-06T06:49:49.071Z,7.70
2018-09-06T06:50:49.079Z,7.30
2018-09-06T06:51:49.070Z,7.00
2018-09-06T06:52:49.042Z,7.40
2018-09-06T06:53:49.097Z,7.00
2018-09-06T06:54:49.019Z,7.20
2018-09-06T06:55:49.028Z,7.10
2018-09-06T06:56:48.997Z,7.30
2018-09-06T06:57:49.013Z,7.50
2018-09-06T06:58:48.974Z,7.30
2018-09-06T06:59:48.957Z,7.30
2018-09-06T07:00:48.978Z,7.20
2018-09-06T07:01:48.941Z,6.40
2018-09-06T07:02:48.940Z,7.00
2018-09-06T07:03:48.914Z,7.20
2018-09-06T07:04:48.902Z,6.80
2018-09-06T07:05:48.913Z,7.30
2018-09-06T07:06:48.916Z,7.40
2018-09-06T07:07:48.892Z,6.80
2018-09-06T07:08:48.880Z,6.90
2018-09-06T07:09:48.848Z,7.10
2018-09-06T07:10:48.866Z,6.80
2018-09-06T07:11:48.835Z,7.30
2018-09-06T07:12:48.814Z,6.80
2018-09-06T07:13:48.812Z,6.90
2018-09-06T07:14:48.789Z,6.90
2018-09-06T07:15:48.791Z,7.10
2018-09-06T07:16:48.767Z,6.40
2018-09-06T07:17:48.764Z,6.90
2018-09-06T07:18:48.770Z,6.80
2018-09-06T07:19:48.734Z,7.00
2018-09-06T07:20:48.739Z,7.00
2018-09-06T07:21:48.711Z,6.50
2018-09-06T07:22:48.700Z,6.80
2018-09-06T07:23:48.691Z,6.60
2018-09-06T07:24:48.700Z,6.30
2018-09-06T07:25:48.695Z,6.80
2018-09-06T07:26:48.656Z,6.80
2018-09-06T07:27:48.695Z,6.50
2018-09-06T07:28:48.633Z,6.80
2018-09-06T07:29:48.628Z,6.40
2018-09-06T07:30:48.692Z,6.10
2018-09-06T07:31:48.620Z,7.00
2018-09-06T07:32:48.589Z,6.40
2018-09-06T07:33:48.581Z,6.70
2018-09-06T07:34:48.576Z,6.70
2018-09-06T07:35:48.583Z,6.30
2018-09-06T07:36:48.571Z,6.60
2018-09-06T07:37:48.536Z,6.40
2018-09-06T07:38:48.523Z,6.50
2018-09-06T07:39:48.511Z,6.50
2018-09-06T07:40:48.516Z,6.60
2018-09-06T07:41:48.497Z,6.40
2018-09-06T07:42:48.522Z,6.60
2018-09-06T07:43:48.473Z,6.80
2018-09-06T07:44:48.454Z,6.60
2018-09-06T07:45:48.470Z,5.80
2018-09-06T07:46:48.446Z,6.50
2018-09-06T07:47:48.420Z,6.40
2018-09-06T07:48:48.413Z,6.70
2018-09-06T07:49:48.399Z,6.40
2018-09-06T07:50:48.423Z,6.70
2018-09-06T07:51:48.389Z,6.20
2018-09-06T07:52:48.366Z,6.80
2018-09-06T07:53:48.373Z,6.70
2018-09-06T07:54:48.343Z,6.70
2018-09-06T07:55:48.335Z,6.30
2018-09-06T07:56:48.349Z,6.40
2018-09-06T07:57:48.355Z,6.30
2018-09-06T07:58:48.306Z,6.50
2018-09-06T07:59:48.294Z,6.50
2018-09-06T08:00:48.281Z,6.10
2018-09-06T08:01:48.284Z,6.40
2018-09-06T08:02:48.263Z,6.10
2018-09-06T08:03:48.247Z,6.30
2018-09-06T08:04:48.239Z,6.30
2018-09-06T08:05:48.233Z,6.40
2018-09-06T08:06:48.252Z,6.80
2018-09-06T08:07:48.199Z,6.90
2018-09-06T08:08:48.208Z,7.20
2018-09-06T08:09:48.177Z,6.40
2018-09-06T08:10:48.166Z,6.40
2018-09-06T08:11:48.172Z,6.40
2018-09-06T08:12:48.165Z,6.40
2018-09-06T08:13:48.140Z,6.10
2018-09-06T08:14:48.122Z,6.20
2018-09-06T08:15:48.116Z,6.60
2018-09-06T08:16:48.114Z,6.60
2018-09-06T08:17:48.095Z,7.10
2018-09-06T08:18:48.123Z,7.00
2018-09-06T08:19:48.091Z,6.70
2018-09-06T08:20:48.100Z,7.20
2018-09-06T08:21:48.064Z,6.60
2018-09-06T08:22:48.039Z,6.50
2018-09-06T08:23:48.024Z,6.10
2018-09-06T08:24:48.020Z,6.50
2018-09-06T08:25:48.016Z,6.20
2018-09-06T08:26:48.026Z,6.50
2018-09-06T08:27:47.986Z,6.40
2018-09-06T08:28:47.972Z,6.20
2018-09-06T08:29:47.979Z,6.10
2018-09-06T08:30:48.041Z,6.70
2018-09-06T08:31:47.958Z,6.50
2018-09-06T08:32:47.924Z,6.20
2018-09-06T08:33:47.914Z,6.30
2018-09-06T08:34:47.917Z,6.50
2018-09-06T08:35:47.893Z,7.00
2018-09-06T08:36:47.923Z,7.20
2018-09-06T08:37:47.916Z,7.10
2018-09-06T08:38:47.864Z,6.70
2018-09-06T08:39:47.847Z,6.40
2018-09-06T08:40:47.837Z,6.30
2018-09-06T08:41:47.859Z,6.40
2018-09-06T08:42:47.814Z,6.80
2018-09-06T08:43:47.804Z,5.90
2018-09-06T08:44:47.788Z,5.90
2018-09-06T08:45:47.819Z,6.80
2018-09-06T08:46:47.811Z,6.80
2018-09-06T08:47:47.778Z,7.70
2018-09-06T08:48:47.744Z,8.70
2018-09-06T08:49:47.748Z,8.10
2018-09-06T08:50:47.719Z,8.60
2018-09-06T08:51:47.729Z,9.40
2018-09-06T08:52:47.708Z,8.70
2018-09-06T08:53:47.689Z,7.20
2018-09-06T08:54:47.679Z,7.30
2018-09-06T08:55:47.665Z,9.00
2018-09-06T08:56:47.673Z,8.70
2018-09-06T08:57:47.671Z,7.80
2018-09-06T08:58:47.638Z,7.80
2018-09-06T08:59:47.622Z,8.30
2018-09-06T09:00:47.613Z,6.80
2018-09-06T09:01:47.619Z,7.50
2018-09-06T09:02:47.642Z,8.40
2018-09-06T09:03:47.596Z,7.20
2018-09-06T09:04:47.649Z,7.40
2018-09-06T09:05:47.564Z,7.00
2018-09-06T09:06:47.560Z,8.40
2018-09-06T09:07:47.561Z,7.10
2018-09-06T09:08:47.537Z,7.10
2018-09-06T09:09:47.527Z,7.40
2018-09-06T09:10:47.505Z,8.40
2018-09-06T09:11:47.513Z,9.00
2018-09-06T09:12:47.478Z,8.00
2018-09-06T09:13:47.514Z,7.30
2018-09-06T09:14:47.466Z,8.10
2018-09-06T09:15:47.460Z,8.00
2018-09-06T09:16:47.476Z,7.70
2018-09-06T09:17:47.422Z,7.20
2018-09-06T09:18:47.413Z,8.00
2018-09-06T09:19:47.439Z,7.30
2018-09-06T09:20:47.404Z,7.30
2018-09-06T09:21:47.475Z,7.70
2018-09-06T09:22:47.394Z,7.40
2018-09-06T09:23:47.359Z,6.90
2018-09-06T09:24:47.356Z,8.60
2018-09-06T09:25:47.354Z,6.90
2018-09-06T09:26:47.335Z,7.50
2018-09-06T09:27:47.336Z,7.50
2018-09-06T09:28:47.304Z,7.60
2018-09-06T09:29:47.304Z,7.30
2018-09-06T09:30:47.283Z,7.50
2018-09-06T09:31:47.298Z,7.40
2018-09-06T09:32:47.280Z,7.70
2018-09-06T09:33:47.291Z,7.00
2018-09-06T09:34:47.235Z,7.10
2018-09-06T09:35:47.232Z,7.20
2018-09-06T09:36:47.221Z,7.00
2018-09-06T09:37:47.225Z,6.70
2018-09-06T09:38:47.192Z,6.80
2018-09-06T09:39:47.199Z,7.00
2018-09-06T09:40:47.176Z,7.70
2018-09-06T09:41:47.160Z,7.30
2018-09-06T09:42:47.170Z,7.50
2018-09-06T09:43:47.183Z,8.40
2018-09-06T09:44:47.124Z,8.80
2018-09-06T09:45:47.130Z,8.70
2018-09-06T09:47:48.571Z,7.60
2018-09-06T09:48:48.556Z,7.40
2018-09-06T09:49:48.546Z,8.00
2018-09-06T09:50:48.542Z,8.60
2018-09-06T09:51:48.525Z,8.90
2018-09-06T09:52:48.529Z,9.10
2018-09-06T09:53:48.502Z,9.10
2018-09-06T09:54:48.493Z,9.10
2018-09-06T09:55:48.485Z,8.70
2018-09-06T09:56:48.471Z,9.00
2018-09-06T09:57:48.493Z,8.60
2018-09-06T09:58:48.447Z,7.80
2018-09-06T09:59:48.436Z,7.80
2018-09-06T10:00:48.449Z,8.30
2018-09-06T10:01:48.417Z,9.20
2018-09-06T10:02:48.425Z,8.90
2018-09-06T10:03:48.412Z,8.00
2018-09-06T10:04:48.388Z,8.50
2018-09-06T10:05:48.384Z,8.30
2018-09-06T10:06:48.363Z,7.30
2018-09-06T10:07:48.369Z,7.80
2018-09-06T10:08:48.344Z,8.10
2018-09-06T10:09:48.328Z,8.00
2018-09-06T10:10:48.317Z,7.70
2018-09-06T10:11:48.332Z,8.30
2018-09-06T10:12:48.310Z,8.70
2018-09-06T10:13:48.288Z,8.60
2018-09-06T10:14:48.273Z,8.20
2018-09-06T10:15:48.262Z,7.90
2018-09-06T10:16:48.251Z,7.80
2018-09-06T10:17:48.266Z,8.60
2018-09-06T10:18:48.236Z,8.50
2018-09-06T10:19:48.217Z,8.10
2018-09-06T10:20:48.209Z,7.80
2018-09-06T10:21:48.197Z,8.30
2018-09-06T10:22:48.201Z,7.90
2018-09-06T10:23:48.183Z,8.40
2018-09-06T10:24:48.182Z,8.50
2018-09-06T10:25:48.151Z,8.20
2018-09-06T10:26:48.148Z,8.70
2018-09-06T10:27:48.148Z,8.30
2018-09-06T10:28:48.121Z,8.80
2018-09-06T10:29:48.117Z,8.10
2018-09-06T10:30:48.130Z,8.60
2018-09-06T10:31:48.085Z,9.10
2018-09-06T10:32:48.111Z,9.10
2018-09-06T10:33:48.064Z,8.90
2018-09-06T10:34:48.058Z,8.30
2018-09-06T10:35:48.049Z,8.40
2018-09-06T10:36:48.031Z,8.40
2018-09-06T10:37:48.023Z,8.30
2018-09-06T10:38:48.027Z,8.40
2018-09-06T10:39:48.001Z,8.70
2018-09-06T10:40:47.990Z,9.00
2018-09-06T10:41:47.978Z,8.70
2018-09-06T10:42:47.981Z,8.50
2018-09-06T10:43:47.970Z,8.50
2018-09-06T10:44:47.945Z,7.90
2018-09-06T10:45:47.937Z,8.60
2018-09-06T10:46:47.928Z,8.40
2018-09-06T10:47:47.956Z,8.00
2018-09-06T10:48:47.929Z,8.30
2018-09-06T10:49:47.926Z,8.80
2018-09-06T10:50:47.887Z,8.40
2018-09-06T10:51:47.876Z,9.40
2018-09-06T10:52:47.857Z,8.50
2018-09-06T10:53:47.863Z,8.90
2018-09-06T10:54:47.836Z,8.20
2018-09-06T10:55:47.831Z,8.80
2018-09-06T10:56:47.820Z,9.00
2018-09-06T10:57:47.805Z,8.70
2018-09-06T10:58:47.813Z,9.00
2018-09-06T10:59:47.781Z,9.10
2018-09-06T11:00:47.809Z,8.80
2018-09-06T11:01:47.773Z,8.50
2018-09-06T11:02:47.785Z,9.00
2018-09-06T11:03:47.762Z,8.60
2018-09-06T11:04:47.726Z,9.00
2018-09-06T11:05:47.716Z,8.40
2018-09-06T11:06:47.705Z,8.60
2018-09-06T11:07:47.718Z,8.10
2018-09-06T11:08:47.709Z,8.20
2018-09-06T11:09:47.671Z,8.20
2018-09-06T11:10:47.661Z,8.20
2018-09-06T11:11:47.650Z,7.60
2018-09-06T11:12:47.639Z,8.10
2018-09-06T11:13:47.646Z,7.80
2018-09-06T11:14:47.645Z,8.10
2018-09-06T11:15:47.607Z,8.20
2018-09-06T11:16:47.595Z,7.90
2018-09-06T11:17:47.604Z,7.60
2018-09-06T11:18:47.589Z,8.20
2018-09-06T11:19:47.562Z,7.80
2018-09-06T11:20:47.571Z,7.70
2018-09-06T11:21:47.571Z,7.80
2018-09-06T11:22:47.636Z,7.80
2018-09-06T11:23:47.545Z,7.80
2018-09-06T11:24:47.507Z,7.70
2018-09-06T11:25:47.499Z,8.30
2018-09-06T11:26:47.495Z,7.80
2018-09-06T11:27:47.503Z,7.90
2018-09-06T11:28:47.487Z,7.70
2018-09-06T11:29:47.456Z,7.80
2018-09-06T11:30:47.448Z,7.90
2018-09-06T11:31:47.430Z,7.60
2018-09-06T11:32:47.421Z,7.80
2018-09-06T11:33:47.426Z,7.50
2018-09-06T11:34:47.451Z,7.60
2018-09-06T11:35:47.387Z,7.60
2018-09-06T11:36:47.379Z,7.50
2018-09-06T11:37:47.364Z,7.90
2018-09-06T11:38:47.373Z,7.60
2018-09-06T11:39:47.345Z,7.60
2018-09-06T11:40:47.356Z,8.00
2018-09-06T11:41:47.326Z,7.70
2018-09-06T11:42:47.327Z,7.50
2018-09-06T11:43:47.319Z,7.40
2018-09-06T11:44:47.289Z,7.70
2018-09-06T11:45:48.710Z,7.50
2018-09-06T11:46:47.334Z,7.20
2018-09-06T11:47:47.388Z,7.10
2018-09-06T11:48:47.276Z,7.40
2018-09-06T11:49:47.235Z,7.10
2018-09-06T11:50:47.224Z,7.20
2018-09-06T11:51:47.215Z,7.00
2018-09-06T11:52:47.235Z,7.10
2018-09-06T11:53:47.210Z,7.60
2018-09-06T11:54:47.180Z,7.20
2018-09-06T11:55:47.170Z,7.20
2018-09-06T11:56:47.161Z,7.10
2018-09-06T11:57:47.151Z,7.00
2018-09-06T11:58:47.180Z,6.80
2018-09-06T11:59:47.130Z,7.00
2018-09-06T12:00:47.115Z,7.00
2018-09-06T12:01:47.105Z,7.40
2018-09-06T12:02:47.093Z,7.00
2018-09-06T12:03:47.083Z,7.10
2018-09-06T12:04:47.110Z,7.00
2018-09-06T12:05:47.062Z,7.20
2018-09-06T12:06:47.051Z,7.10
2018-09-06T12:07:47.042Z,7.30
2018-09-06T12:08:47.030Z,7.10
2018-09-06T12:09:47.038Z,7.10
2018-09-06T12:10:47.032Z,7.10
2018-09-06T12:11:47.012Z,7.40
2018-09-06T12:12:46.990Z,6.80
2018-09-06T12:13:47.013Z,6.70
2018-09-06T12:14:46.983Z,6.90
2018-09-06T12:15:46.955Z,7.10
2018-09-06T12:16:46.975Z,6.90
2018-09-06T12:17:46.931Z,6.90
2018-09-06T12:18:46.921Z,6.80
2018-09-06T12:19:46.937Z,6.60
2018-09-06T12:20:46.901Z,6.60
2018-09-06T12:21:46.901Z,7.00
2018-09-06T12:22:46.888Z,6.60
2018-09-06T12:23:46.870Z,6.70
2018-09-06T12:24:46.875Z,6.60
2018-09-06T12:25:46.928Z,6.70
2018-09-06T12:26:46.839Z,6.40
2018-09-06T12:27:46.824Z,6.50
2018-09-06T12:28:46.817Z,6.50
2018-09-06T12:29:46.851Z,6.80
2018-09-06T12:30:46.794Z,6.90
2018-09-06T12:31:46.782Z,6.50
2018-09-06T12:32:46.772Z,6.60
2018-09-06T12:33:46.759Z,6.30
2018-09-06T12:34:46.766Z,6.40
2018-09-06T12:35:46.745Z,6.30
2018-09-06T12:36:46.728Z,6.50
2018-09-06T12:37:46.717Z,6.90
2018-09-06T12:38:46.790Z,6.10
2018-09-06T12:39:46.726Z,6.40
2018-09-06T12:40:46.686Z,6.50
2018-09-06T12:41:46.680Z,6.80
2018-09-06T12:42:46.688Z,6.70
2018-09-06T12:43:46.657Z,6.70
2018-09-06T12:44:46.659Z,6.60
2018-09-06T12:45:46.630Z,6.50
2018-09-06T12:46:46.621Z,6.50
2018-09-06T12:47:46.608Z,6.20
2018-09-06T12:48:46.619Z,6.50
2018-09-06T12:49:46.603Z,5.90
2018-09-06T12:50:46.577Z,6.60
2018-09-06T12:51:46.567Z,6.90
2018-09-06T12:52:46.553Z,6.80
2018-09-06T12:53:46.543Z,6.40
2018-09-06T12:54:46.574Z,6.50
2018-09-06T12:55:46.543Z,6.80
2018-09-06T12:56:46.510Z,6.40
2018-09-06T12:57:46.504Z,6.30
2018-09-06T12:58:46.488Z,6.40
2018-09-06T12:59:46.496Z,6.70
2018-09-06T13:00:46.491Z,6.10
2018-09-06T13:01:46.457Z,6.20
2018-09-06T13:02:46.446Z,6.40
2018-09-06T13:03:46.435Z,6.40
2018-09-06T13:04:46.441Z,6.10
2018-09-06T13:05:46.412Z,6.30
2018-09-06T13:06:46.422Z,6.20
2018-09-06T13:07:46.396Z,6.30
2018-09-06T13:08:46.380Z,6.30
2018-09-06T13:09:46.389Z,6.20
2018-09-06T13:10:46.362Z,6.20
2018-09-06T13:11:46.354Z,6.30
2018-09-06T13:12:46.357Z,6.20